Time;durP1;ratioP1;P1;durP2;ratioP2;P2;SDS_P1;SDS_P2;PMS_P1;PMS_P2;Temp;Humidity;BMP_temperature;BMP_pressure;BME280_temperature;BME280_humidity;BME280_pressure;Samples;Min_cycle;Max_cycle;Signal;HPM_P1;HPM_P2
2022/06/27 00:01:58;;;;;;;9.38;7.32;;;;;;;18.41;73.39;101299.00;3571625;40;20053;-62
2022/06/27 00:04:23;;;;;;;12.02;7.38;;;;;;;18.44;73.13;101291.44;3568640;40;20079;-62
2022/06/27 00:06:49;;;;;;;9.73;7.57;;;;;;;18.44;73.34;101294.16;3571602;40;20056;-62
2022/06/27 00:09:15;;;;;;;10.77;8.05;;;;;;;18.46;72.75;101294.03;3571912;40;20060;-62
2022/06/27 00:11:40;;;;;;;12.18;8.30;;;;;;;18.46;72.61;101288.59;3570955;40;20064;-62
2022/06/27 00:14:06;;;;;;;12.57;7.57;;;;;;;18.46;72.71;101292.16;3568518;40;20060;-62
2022/06/27 00:16:31;;;;;;;9.30;7.38;;;;;;;18.45;73.34;101300.47;3570490;40;20586;-62
2022/06/27 00:18:57;;;;;;;10.02;7.68;;;;;;;18.47;73.19;101302.06;3570762;40;20060;-62
2022/06/27 00:21:23;;;;;;;10.30;7.07;;;;;;;18.51;73.46;101297.19;3566720;40;20381;-62
2022/06/27 00:23:48;;;;;;;10.00;7.85;;;;;;;18.54;72.97;101303.22;3570806;40;20073;-62
2022/06/27 00:26:14;;;;;;;9.57;7.65;;;;;;;18.52;73.24;101304.34;3569780;40;20087;-62
2022/06/27 00:28:39;;;;;;;9.48;7.80;;;;;;;18.53;73.31;101317.84;3571473;40;20320;-63
2022/06/27 00:31:05;;;;;;;8.65;7.63;;;;;;;18.48;74.04;101311.94;3570101;40;20060;-62
2022/06/27 00:33:31;;;;;;;10.88;7.68;;;;;;;18.47;72.95;101312.09;3567504;40;20597;-62
2022/06/27 00:35:56;;;;;;;11.45;8.35;;;;;;;18.44;73.80;101320.53;3569729;40;20064;-62
2022/06/27 00:38:22;;;;;;;11.25;8.00;;;;;;;17.72;73.35;101202.44;3570235;40;20069;-62
2022/06/27 00:40:47;;;;;;;8.40;7.03;;;;;;;18.42;73.98;101315.19;3571911;40;20064;-62
2022/06/27 00:43:13;;;;;;;12.98;8.43;;;;;;;18.37;73.70;101312.03;3569644;40;20299;-62
2022/06/27 00:45:39;;;;;;;9.63;8.00;;;;;;;18.44;73.81;101326.81;3569217;40;20260;-62
2022/06/27 00:48:05;;;;;;;11.43;8.20;;;;;;;18.43;72.98;101325.09;3568893;40;20060;-63
2022/06/27 00:50:31;;;;;;;10.52;8.07;;;;;;;18.42;73.81;101325.22;3570746;40;20118;-62
2022/06/27 00:52:57;;;;;;;11.50;7.55;;;;;;;18.46;73.98;101332.16;3570797;40;20052;-62
2022/06/27 00:55:24;;;;;;;11.02;7.47;;;;;;;18.41;73.78;101323.50;3568298;40;20060;-62
2022/06/27 00:57:51;;;;;;;12.30;8.10;;;;;;;18.49;73.75;101331.84;3568789;40;20142;-64
2022/06/27 01:00:18;;;;;;;8.82;7.70;;;;;;;18.46;74.51;101333.00;3569308;40;20104;-62
2022/06/27 01:02:43;;;;;;;10.07;7.80;;;;;;;18.45;74.68;101324.97;3569173;40;20724;-63
2022/06/27 01:05:12;;;;;;;11.02;7.68;;;;;;;18.43;74.90;101326.97;3570739;40;20053;-65
2022/06/27 01:07:39;;;;;;;10.38;7.65;;;;;;;18.41;74.28;101329.81;3569805;40;20097;-64
2022/06/27 01:10:07;;;;;;;9.20;7.72;;;;;;;18.40;74.28;101328.09;3568534;40;20122;-63
2022/06/27 01:12:33;;;;;;;11.95;8.10;;;;;;;18.41;75.10;101335.25;3568979;40;20054;-63
2022/06/27 01:15:01;;;;;;;12.43;7.60;;;;;;;18.42;74.42;101336.13;3569908;40;20052;-63
2022/06/27 01:17:27;;;;;;;10.45;8.35;;;;;;;18.37;73.77;101332.94;3568706;40;20311;-64
2022/06/27 01:19:53;;;;;;;9.25;8.00;;;;;;;18.41;73.42;101335.25;3569875;40;20052;-63
2022/06/27 01:22:19;;;;;;;10.65;7.88;;;;;;;18.42;73.58;101341.56;3575233;40;20048;-64
2022/06/27 01:24:44;;;;;;;11.52;7.78;;;;;;;18.40;73.88;101335.41;3571769;40;20065;-63
2022/06/27 01:27:11;;;;;;;10.57;8.15;;;;;;;18.45;72.76;101333.13;3566983;40;20112;-64
2022/06/27 01:29:38;;;;;;;11.68;8.35;;;;;;;18.46;73.37;101333.00;3569037;40;20060;-64
2022/06/27 01:32:05;;;;;;;9.70;8.68;;;;;;;18.50;72.32;101328.16;3567944;40;20052;-64
2022/06/27 01:34:31;;;;;;;9.32;8.43;;;;;;;18.50;72.34;101325.44;3567330;40;20380;-64
2022/06/27 01:36:56;;;;;;;13.32;8.57;;;;;;;18.48;72.29;101319.25;3571632;40;20052;-63
2022/06/27 01:39:26;;;;;;;11.18;8.43;;;;;;;18.50;71.79;101314.53;3567938;40;20337;-64
2022/06/27 01:41:59;;;;;;;11.13;8.77;;;;;;;18.51;71.96;101291.75;3569796;40;20084;-64
2022/06/27 01:44:30;;;;;;;10.45;8.45;;;;;;;18.50;72.05;101295.47;3567470;40;20064;-63
2022/06/27 01:47:10;;;;;;;10.43;8.57;;;;;;;18.49;71.69;101294.63;3569674;40;20146;-63
2022/06/27 01:49:38;;;;;;;9.88;8.18;;;;;;;18.51;72.50;101297.19;3568834;40;20112;-64
2022/06/27 01:52:07;;;;;;;11.05;8.75;;;;;;;18.50;72.17;101300.94;3568218;40;20052;-64
2022/06/27 01:54:33;;;;;;;11.70;8.70;;;;;;;18.48;72.21;101292.88;3569325;40;20065;-64
2022/06/27 01:56:59;;;;;;;9.45;8.45;;;;;;;18.47;72.01;101293.03;3570043;40;20064;-64
2022/06/27 01:59:29;;;;;;;10.20;8.30;;;;;;;18.48;73.02;101292.03;3567992;40;20071;-63
2022/06/27 02:01:58;;;;;;;10.48;8.25;;;;;;;18.48;72.47;101281.13;3568406;40;20052;-63
2022/06/27 02:04:26;;;;;;;9.38;7.78;;;;;;;18.49;72.85;101283.72;3566576;40;20110;-63
2022/06/27 02:06:52;;;;;;;11.45;8.40;;;;;;;18.48;72.19;101287.44;3569165;40;20052;-63
2022/06/27 02:09:18;;;;;;;10.73;8.25;;;;;;;18.32;72.16;101259.84;3568695;40;20056;-63
2022/06/27 02:11:49;;;;;;;12.82;8.85;;;;;;;18.44;71.75;101276.97;3566419;40;20059;-63
2022/06/27 02:14:15;;;;;;;11.30;8.73;;;;;;;18.43;72.52;101272.53;3569059;40;20056;-64
2022/06/27 02:16:42;;;;;;;11.38;8.40;;;;;;;18.41;72.13;101278.09;3569609;40;20257;-63
2022/06/27 02:19:13;;;;;;;10.73;8.40;;;;;;;18.40;73.20;101268.22;3567940;40;20055;-64
2022/06/27 02:21:40;;;;;;;10.25;7.88;;;;;;;18.41;73.24;101264.47;3567273;40;20662;-64
2022/06/27 02:24:06;;;;;;;12.52;7.80;;;;;;;18.39;72.56;101269.19;3567000;40;20092;-64
2022/06/27 02:26:31;;;;;;;11.40;7.80;;;;;;;18.39;73.55;101261.03;3566965;40;20140;-64
2022/06/27 02:28:59;;;;;;;10.73;8.52;;;;;;;18.41;72.94;101256.31;3568784;40;20325;-64
2022/06/27 02:31:27;;;;;;;10.23;8.48;;;;;;;18.38;72.79;101261.16;3568591;40;20071;-64
2022/06/27 02:33:55;;;;;;;10.57;8.07;;;;;;;18.36;73.28;101260.44;3567641;40;20068;-63
2022/06/27 02:36:41;;;;;;;12.60;9.35;;;;;;;18.35;73.13;101265.00;3566910;40;20148;-63
2022/06/27 02:39:09;;;;;;;11.35;9.13;;;;;;;18.32;72.90;101277.03;3567106;40;20499;-64
2022/06/27 02:41:40;;;;;;;10.15;8.90;;;;;;;18.35;73.33;101265.00;3567404;40;20061;-64
2022/06/27 02:44:12;;;;;;;10.73;8.48;;;;;;;18.33;72.92;101262.44;3567882;40;20049;-64
2022/06/27 02:46:40;;;;;;;9.90;8.90;;;;;;;18.33;73.62;101269.72;3570153;40;20060;-63
2022/06/27 02:49:08;;;;;;;10.35;8.23;;;;;;;18.30;73.85;101251.81;3568572;40;20068;-63
2022/06/27 02:52:06;;;;;;;13.30;8.68;;;;;;;18.21;74.46;101230.00;3574337;40;20107;-63
2022/06/27 02:54:59;;;;;;;10.52;8.35;;;;;;;18.26;73.91;101234.00;3570019;40;20378;-63
2022/06/27 02:57:46;;;;;;;12.07;8.13;;;;;;;18.25;74.96;101226.84;3569444;40;20118;-64
2022/06/27 03:00:14;;;;;;;12.43;8.48;;;;;;;18.24;73.69;101224.28;3569379;40;20287;-64
2022/06/27 03:02:43;;;;;;;11.13;8.80;;;;;;;18.08;74.28;101208.44;3569500;40;20044;-63
2022/06/27 03:05:09;;;;;;;12.80;9.30;;;;;;;18.12;73.93;101220.78;3568669;40;20049;-64
2022/06/27 03:07:43;;;;;;;11.70;9.82;;;;;;;17.89;73.97;101186.53;3571915;40;20143;-63
2022/06/27 03:10:12;;;;;;;11.45;9.00;;;;;;;18.03;74.50;101227.00;3567702;40;20392;-63
2022/06/27 03:12:39;;;;;;;13.23;8.88;;;;;;;17.98;74.01;101215.66;3567438;40;20109;-63
2022/06/27 03:15:05;;;;;;;10.43;9.32;;;;;;;17.91;74.84;101212.63;3568349;40;20068;-63
2022/06/27 03:17:31;;;;;;;12.93;9.52;;;;;;;17.86;74.65;101215.75;3568170;40;20407;-63
2022/06/27 03:19:57;;;;;;;12.05;9.27;;;;;;;17.81;75.83;101214.41;3568871;40;20048;-63
2022/06/27 03:22:22;;;;;;;13.25;9.48;;;;;;;17.76;76.24;101222.06;3571062;40;20071;-63
2022/06/27 03:24:48;;;;;;;15.88;9.55;;;;;;;17.70;75.44;101223.47;3571827;40;20391;-63
2022/06/27 03:27:14;;;;;;;11.07;8.90;;;;;;;17.64;76.16;101221.28;3568470;40;20134;-63
2022/06/27 03:29:39;;;;;;;12.85;9.90;;;;;;;17.62;76.99;101213.22;3571313;40;20092;-63
2022/06/27 03:32:06;;;;;;;10.80;8.95;;;;;;;17.32;76.75;101173.22;3570213;40;20407;-63
2022/06/27 03:34:32;;;;;;;10.95;8.52;;;;;;;17.56;76.39;101226.47;3567744;40;20068;-63
2022/06/27 03:36:58;;;;;;;10.88;8.82;;;;;;;17.52;76.08;101219.59;3570079;40;20166;-63
2022/06/27 03:39:25;;;;;;;13.25;9.85;;;;;;;17.48;77.63;101220.84;3572543;40;20378;-63
2022/06/27 03:41:51;;;;;;;18.27;9.48;;;;;;;17.42;77.27;101222.22;3569586;40;20049;-63
2022/06/27 03:44:17;;;;;;;12.55;9.52;;;;;;;17.35;78.03;101215.59;3568074;40;20056;-63
2022/06/27 03:46:43;;;;;;;13.27;9.57;;;;;;;17.30;77.53;101209.66;3568213;40;20085;-63
2022/06/27 03:51:54;;;;;;;14.63;11.07;;;;;;;17.25;77.90;101217.34;3572060;40;20059;-62
2022/06/27 03:54:20;;;;;;;13.70;9.80;;;;;;;17.22;78.53;101229.34;3572929;40;20284;-63
2022/06/27 03:56:46;;;;;;;13.70;10.32;;;;;;;17.21;78.12;101230.31;3571096;40;20127;-63
2022/06/27 03:59:13;;;;;;;12.57;9.75;;;;;;;17.01;78.60;101202.09;3570791;40;20063;-63
2022/06/27 04:01:39;;;;;;;14.95;10.52;;;;;;;17.18;78.51;101245.00;3570352;40;20053;-63
2022/06/27 04:04:05;;;;;;;13.50;10.63;;;;;;;16.88;78.69;101213.13;3571416;40;20127;-63
2022/06/27 04:06:31;;;;;;;13.55;11.52;;;;;;;16.87;79.40;101200.53;3576994;40;20122;-63
2022/06/27 04:08:58;;;;;;;15.52;10.98;;;;;;;17.21;79.62;101240.31;3575002;40;20040;-63
2022/06/27 04:11:24;;;;;;;14.00;10.63;;;;;;;17.25;79.20;101234.50;3578550;40;20052;-64
2022/06/27 04:13:49;;;;;;;16.40;12.10;;;;;;;17.22;79.40;101231.16;3574112;40;20295;-63
2022/06/27 04:16:15;;;;;;;13.43;11.85;;;;;;;17.27;79.92;101240.69;3570197;40;20060;-63
2022/06/27 04:18:41;;;;;;;12.93;11.02;;;;;;;17.36;79.06;101229.03;3567038;40;20383;-63
2022/06/27 04:21:06;;;;;;;12.70;10.98;;;;;;;17.46;78.91;101228.25;3572195;40;20296;-63
2022/06/27 04:23:32;;;;;;;12.57;11.27;;;;;;;17.55;78.52;101213.91;3569249;40;20049;-63
2022/06/27 04:25:58;;;;;;;13.18;11.35;;;;;;;17.63;79.26;101214.09;3562233;40;20123;-63
2022/06/27 04:28:23;;;;;;;12.40;11.00;;;;;;;17.69;78.23;101202.69;3572146;40;20102;-63
2022/06/27 04:30:49;;;;;;;12.68;10.38;;;;;;;17.71;78.25;101199.84;3570380;40;20052;-63
2022/06/27 04:33:15;;;;;;;14.88;11.80;;;;;;;17.73;77.73;101182.41;3571862;40;20056;-63
2022/06/27 04:35:41;;;;;;;13.98;11.23;;;;;;;17.85;78.57;101181.34;3571923;40;20068;-63
2022/06/27 04:38:07;;;;;;;14.30;11.27;;;;;;;17.94;77.94;101170.69;3571908;40;20056;-63
2022/06/27 04:40:33;;;;;;;14.02;11.57;;;;;;;17.98;77.88;101169.41;3566930;40;20134;-63
2022/06/27 04:42:59;;;;;;;14.38;12.07;;;;;;;17.94;77.15;101157.09;3559171;40;20127;-63
2022/06/27 04:45:27;;;;;;;13.82;11.50;;;;;;;17.93;77.75;101156.22;3571469;40;20379;-63
2022/06/27 04:47:53;;;;;;;14.55;12.15;;;;;;;18.06;77.48;101172.34;3573217;40;20115;-63
2022/06/27 04:50:22;;;;;;;13.18;11.88;;;;;;;18.13;77.85;101178.09;3571152;40;20048;-63
2022/06/27 04:52:49;;;;;;;16.35;12.50;;;;;;;18.14;77.43;101182.53;3570269;40;20100;-63
2022/06/27 04:55:16;;;;;;;16.35;12.65;;;;;;;18.14;78.08;101205.19;3570301;40;20276;-63
2022/06/27 04:57:44;;;;;;;14.85;12.82;;;;;;;18.08;77.31;101186.69;3559639;40;20072;-64
2022/06/27 05:00:14;;;;;;;15.60;13.45;;;;;;;18.19;77.55;101189.28;3572073;40;20053;-63
2022/06/27 05:02:40;;;;;;;16.42;13.05;;;;;;;18.20;77.19;101191.00;3570356;40;20076;-64
2022/06/27 05:05:07;;;;;;;15.63;12.70;;;;;;;18.21;77.75;101183.75;3568672;40;20105;-63
2022/06/27 05:07:33;;;;;;;17.38;13.73;;;;;;;18.15;77.94;101179.69;3569935;40;20037;-63
2022/06/27 05:09:59;;;;;;;15.18;13.38;;;;;;;18.17;77.98;101174.09;3569283;40;20307;-63
2022/06/27 05:12:26;;;;;;;16.65;13.43;;;;;;;18.16;77.67;101166.94;3567521;40;20126;-63
2022/06/27 05:14:54;;;;;;;15.65;12.95;;;;;;;18.16;78.14;101151.47;3569301;40;20084;-63
2022/06/27 05:17:21;;;;;;;15.35;13.15;;;;;;;18.14;78.30;101163.47;3569260;40;20060;-62
2022/06/27 05:19:47;;;;;;;15.60;13.55;;;;;;;18.11;78.47;101175.53;3569025;40;20435;-62
2022/06/27 05:22:13;;;;;;;16.85;14.60;;;;;;;18.05;77.44;101185.09;3571381;40;20068;-62
2022/06/27 05:24:39;;;;;;;18.85;15.38;;;;;;;18.05;78.15;101184.22;3566147;40;20593;-62
2022/06/27 05:27:06;;;;;;;19.08;15.38;;;;;;;18.04;77.02;101171.59;3569222;40;20069;-62
2022/06/27 05:29:33;;;;;;;18.55;16.00;;;;;;;18.16;76.29;101184.13;3568944;40;20060;-62
2022/06/27 05:31:59;;;;;;;19.90;16.15;;;;;;;18.18;75.93;101186.72;3567297;40;20052;-62
2022/06/27 05:34:25;;;;;;;17.77;15.95;;;;;;;18.18;76.81;101203.91;3560332;40;20063;-62
2022/06/27 05:36:51;;;;;;;19.50;16.98;;;;;;;18.14;76.13;101240.56;3567179;40;20056;-62
2022/06/27 05:39:17;;;;;;;18.60;16.45;;;;;;;18.22;75.52;101253.47;3571459;40;20071;-62
2022/06/27 05:41:43;;;;;;;19.05;16.98;;;;;;;18.27;76.22;101273.88;3569744;40;20071;-62
2022/06/27 05:44:09;;;;;;;18.95;16.95;;;;;;;18.33;76.20;101284.22;3570794;40;20073;-62
2022/06/27 05:46:37;;;;;;;18.20;16.23;;;;;;;18.25;75.21;101261.38;3560803;40;20103;-62
2022/06/27 05:49:03;;;;;;;18.38;16.13;;;;;;;18.39;75.80;101292.81;3570648;40;21483;-62
2022/06/27 05:51:30;;;;;;;17.73;15.88;;;;;;;18.41;75.90;101302.59;3569693;40;20053;-62
2022/06/27 05:53:57;;;;;;;18.67;16.40;;;;;;;18.46;75.85;101310.38;3569413;40;20051;-62
2022/06/27 05:56:26;;;;;;;17.02;15.13;;;;;;;18.51;76.26;101314.38;3570987;40;20059;-62
2022/06/27 05:58:52;;;;;;;18.45;15.15;;;;;;;18.51;75.81;101308.94;3570071;40;20044;-62
2022/06/27 06:01:17;;;;;;;16.77;14.77;;;;;;;18.53;77.19;101300.66;3570004;40;20041;-62
2022/06/27 06:03:44;;;;;;;18.40;15.75;;;;;;;18.54;75.49;101302.38;3570776;40;20076;-63
2022/06/27 06:06:09;;;;;;;18.83;15.90;;;;;;;18.53;76.65;101290.63;3570324;40;20080;-62
2022/06/27 06:08:36;;;;;;;18.13;16.17;;;;;;;18.51;75.75;101269.97;3569366;40;20044;-62
2022/06/27 06:11:03;;;;;;;19.90;15.68;;;;;;;18.55;75.55;101279.59;3571382;40;20048;-62
2022/06/27 06:13:29;;;;;;;19.30;16.15;;;;;;;18.58;75.94;101282.03;3563689;40;20358;-62
2022/06/27 06:15:57;;;;;;;17.92;15.68;;;;;;;18.54;76.48;101286.91;3569435;40;20130;-62
2022/06/27 06:18:23;;;;;;;23.25;15.68;;;;;;;18.54;76.34;101284.16;3571210;40;20272;-62
2022/06/27 06:20:49;;;;;;;18.85;16.67;;;;;;;18.58;75.88;101290.22;3570788;40;20060;-62
2022/06/27 06:23:15;;;;;;;18.42;15.68;;;;;;;18.59;76.28;101305.56;3570059;40;20063;-61
2022/06/27 06:25:43;;;;;;;18.33;16.33;;;;;;;18.57;75.38;101318.44;3568870;40;20061;-62
2022/06/27 06:28:09;;;;;;;17.15;15.23;;;;;;;18.57;76.00;101323.88;3570955;40;20041;-62
2022/06/27 06:30:35;;;;;;;20.08;16.38;;;;;;;18.61;77.03;101319.03;3569679;40;20045;-62
2022/06/27 06:33:05;;;;;;;18.80;15.40;;;;;;;18.63;75.95;101322.50;3571762;40;20798;-62
2022/06/27 06:35:33;;;;;;;19.45;15.68;;;;;;;18.66;76.14;101317.63;3570908;40;20089;-62
2022/06/27 06:38:01;;;;;;;18.70;15.75;;;;;;;18.70;76.25;101312.78;3569726;40;20045;-62
2022/06/27 06:40:28;;;;;;;18.95;16.23;;;;;;;18.73;75.26;101302.50;3569866;40;20045;-62
2022/06/27 06:42:55;;;;;;;16.67;14.98;;;;;;;18.74;75.15;101287.03;3556762;40;20064;-62
2022/06/27 06:45:22;;;;;;;18.75;15.23;;;;;;;18.76;74.06;101271.41;3570020;40;20134;-62
2022/06/27 06:47:50;;;;;;;17.00;15.20;;;;;;;18.79;74.33;101257.53;3572094;40;20135;-62
2022/06/27 06:50:18;;;;;;;20.83;15.15;;;;;;;18.76;74.77;101250.47;3572827;40;20049;-62
2022/06/27 06:52:49;;;;;;;16.90;14.43;;;;;;;18.70;74.19;101245.56;3569458;40;20053;-62
2022/06/27 06:55:17;;;;;;;17.85;14.35;;;;;;;18.84;74.53;101247.09;3574201;40;20067;-62
2022/06/27 06:57:43;;;;;;;16.25;14.52;;;;;;;18.87;73.57;101230.47;3564558;40;20065;-62
2022/06/27 07:00:11;;;;;;;16.63;14.50;;;;;;;18.96;72.81;101239.66;3573509;40;20396;-62
2022/06/27 07:02:38;;;;;;;16.00;14.15;;;;;;;19.01;72.52;101245.56;3571228;40;20045;-62
2022/06/27 07:05:08;;;;;;;17.17;14.48;;;;;;;19.09;73.56;101264.78;3570054;40;20059;-62
2022/06/27 07:07:35;;;;;;;17.90;14.25;;;;;;;19.19;72.16;101254.78;3570897;40;20052;-65
2022/06/27 07:10:03;;;;;;;16.85;13.60;;;;;;;19.30;71.89;101247.47;3575547;40;20044;-65
2022/06/27 07:12:29;;;;;;;19.75;14.50;;;;;;;19.35;71.53;101229.69;3569920;40;20053;-65
2022/06/27 07:14:57;;;;;;;24.45;14.93;;;;;;;19.40;71.19;101234.72;3569621;40;20104;-65
2022/06/27 07:17:26;;;;;;;15.20;13.60;;;;;;;19.45;70.64;101246.91;3569514;40;20300;-64
2022/06/27 07:19:53;;;;;;;16.08;13.80;;;;;;;19.49;70.60;101267.44;3569489;40;20098;-64
2022/06/27 07:22:20;;;;;;;17.02;14.55;;;;;;;19.57;71.83;101264.00;3568541;40;20349;-64
2022/06/27 07:24:47;;;;;;;17.45;14.35;;;;;;;19.63;70.03;101284.38;3571357;40;20064;-64
2022/06/27 07:27:17;;;;;;;14.77;12.95;;;;;;;19.56;70.29;101265.00;3573481;40;20066;-65
2022/06/27 07:29:44;;;;;;;16.48;13.52;;;;;;;19.77;70.31;101278.53;3575818;40;20053;-66
2022/06/27 07:32:10;;;;;;;16.42;13.68;;;;;;;19.99;70.97;101282.84;3572917;40;20165;-65
2022/06/27 07:34:37;;;;;;;15.25;12.98;;;;;;;20.12;70.35;101280.66;3572318;40;20058;-66
2022/06/27 07:37:03;;;;;;;12.63;11.25;;;;;;;20.26;68.38;101283.94;3562580;40;20130;-66
2022/06/27 07:39:29;;;;;;;13.73;12.30;;;;;;;20.39;68.44;101276.28;3569959;40;20048;-65
2022/06/27 07:41:55;;;;;;;12.70;11.43;;;;;;;20.52;68.84;101293.28;3574907;40;20063;-65
2022/06/27 07:44:25;;;;;;;10.63;9.63;;;;;;;20.64;66.63;101296.66;3570790;40;20083;-65
2022/06/27 07:46:51;;;;;;;11.57;9.40;;;;;;;20.72;65.42;101298.69;3572548;40;20053;-65
2022/06/27 07:49:17;;;;;;;11.60;8.65;;;;;;;20.75;65.03;101292.91;3571864;40;20330;-66
2022/06/27 07:51:43;;;;;;;11.18;8.00;;;;;;;20.75;64.83;101314.78;3571251;40;20064;-65
2022/06/27 07:54:10;;;;;;;9.98;7.38;;;;;;;20.72;64.66;101315.06;3569743;40;20037;-65
2022/06/27 07:56:37;;;;;;;9.75;7.60;;;;;;;20.71;65.53;101321.53;3569263;40;20053;-65
2022/06/27 07:59:06;;;;;;;9.60;7.47;;;;;;;20.68;65.20;101324.53;3570930;40;20047;-65
2022/06/27 08:01:32;;;;;;;9.20;7.07;;;;;;;20.66;64.91;101330.19;3572435;40;20069;-65
2022/06/27 08:03:58;;;;;;;13.13;11.23;;;;;;;20.69;63.82;101329.03;3570534;40;20064;-67
2022/06/27 08:06:28;;;;;;;19.00;14.60;;;;;;;20.77;64.13;101329.13;3570124;40;20067;-65
2022/06/27 08:08:57;;;;;;;8.50;7.03;;;;;;;20.80;64.12;101324.22;3570555;40;20468;-65
2022/06/27 08:11:33;;;;;;;8.60;6.57;;;;;;;20.88;64.16;101330.84;3569802;40;20125;-64
2022/06/27 08:14:03;;;;;;;8.57;6.60;;;;;;;20.95;62.84;101338.28;3569958;40;20060;-64
2022/06/27 08:16:30;;;;;;;8.98;5.57;;;;;;;20.98;62.33;101328.91;3569572;40;20345;-64
2022/06/27 08:18:57;;;;;;;7.28;6.35;;;;;;;21.01;61.66;101320.41;3564819;40;20065;-65
2022/06/27 08:21:25;;;;;;;7.78;6.18;;;;;;;21.00;62.37;101327.75;3570727;40;20058;-66
2022/06/27 08:23:54;;;;;;;9.75;6.70;;;;;;;21.01;62.86;101325.88;3568666;40;20149;-66
2022/06/27 08:26:22;;;;;;;7.18;5.95;;;;;;;20.96;62.48;101329.03;3574280;40;20059;-65
2022/06/27 08:28:48;;;;;;;6.10;5.50;;;;;;;20.87;61.47;101351.84;3571298;40;20053;-65
2022/06/27 08:31:15;;;;;;;8.13;6.20;;;;;;;20.85;61.95;101353.84;3571832;40;20060;-65
2022/06/27 08:33:44;;;;;;;7.30;6.60;;;;;;;20.82;62.19;101359.59;3571060;40;20299;-65
2022/06/27 08:36:12;;;;;;;7.22;6.45;;;;;;;20.74;63.35;101356.75;3569020;40;20074;-64
2022/06/27 08:38:50;;;;;;;8.02;6.35;;;;;;;20.72;62.95;101358.78;3563751;40;20323;-65
2022/06/27 08:41:23;;;;;;;8.68;7.03;;;;;;;20.70;63.10;101352.59;3570885;40;20056;-65
2022/06/27 08:43:55;;;;;;;9.75;7.47;;;;;;;20.69;63.52;101353.63;3567894;40;20068;-64
2022/06/27 08:46:22;;;;;;;10.07;7.47;;;;;;;20.71;63.19;101355.19;3565526;40;20058;-65
2022/06/27 08:48:50;;;;;;;9.20;7.85;;;;;;;20.51;62.99;101326.16;3565770;40;20053;-65
2022/06/27 08:51:18;;;;;;;11.48;8.00;;;;;;;20.68;64.03;101354.59;3565402;40;20056;-65
2022/06/27 08:53:45;;;;;;;8.80;7.38;;;;;;;20.70;63.58;101356.19;3569100;40;20053;-65
2022/06/27 08:56:15;;;;;;;10.82;7.25;;;;;;;20.73;62.89;101349.56;3570399;40;20117;-65
2022/06/27 08:58:46;;;;;;;8.05;6.50;;;;;;;20.78;63.46;101355.47;3570215;40;20068;-64
2022/06/27 09:01:21;;;;;;;10.50;8.00;;;;;;;20.81;62.51;101363.38;3571255;40;20103;-65
2022/06/27 09:04:00;;;;;;;11.38;7.03;;;;;;;20.83;62.78;101377.72;3566475;40;20076;-64
2022/06/27 09:06:32;;;;;;;9.23;7.57;;;;;;;20.87;61.98;101384.63;3565820;40;20053;-65
2022/06/27 09:09:08;;;;;;;9.45;7.55;;;;;;;20.94;62.16;101379.44;3555731;40;20505;-66
2022/06/27 09:11:38;;;;;;;9.93;8.05;;;;;;;21.05;62.86;101381.97;3566542;40;20055;-66
2022/06/27 09:14:26;;;;;;;9.88;7.60;;;;;;;21.14;61.49;101380.22;3567565;40;20088;-66
2022/06/27 09:17:02;;;;;;;10.85;7.03;;;;;;;21.27;63.07;101358.84;3567805;40;20056;-66
2022/06/27 09:19:56;;;;;;;9.52;7.45;;;;;;;21.36;61.46;101362.59;3576969;40;20048;-66
2022/06/27 09:22:30;;;;;;;11.63;8.52;;;;;;;21.50;62.31;101353.84;3570186;40;20056;-67
2022/06/27 09:25:02;;;;;;;9.63;8.60;;;;;;;21.53;61.22;101364.50;3572951;40;20044;-67
2022/06/27 09:27:40;;;;;;;9.65;8.65;;;;;;;21.62;62.17;101380.00;3567971;40;20090;-65
2022/06/27 09:30:18;;;;;;;9.57;8.02;;;;;;;21.70;62.34;101371.88;3567868;40;20053;-65
2022/06/27 09:32:44;;;;;;;10.75;8.05;;;;;;;21.77;60.77;101375.72;3572075;40;20067;-63
2022/06/27 09:35:31;;;;;;;9.63;7.93;;;;;;;21.76;61.23;101371.28;3574844;40;20058;-65
2022/06/27 09:38:01;;;;;;;9.80;7.55;;;;;;;21.76;59.57;101357.59;3577943;40;20049;-65
2022/06/27 09:40:30;;;;;;;9.10;8.07;;;;;;;21.90;58.64;101360.78;3575488;40;20067;-65
2022/06/27 09:42:57;;;;;;;10.15;8.25;;;;;;;21.73;59.46;101316.84;3574580;40;20457;-64
2022/06/27 09:45:26;;;;;;;8.50;7.45;;;;;;;22.11;58.14;101364.09;3568764;40;20068;-64
2022/06/27 09:47:59;;;;;;;12.77;8.90;;;;;;;22.16;57.58;101344.47;3567952;40;20048;-65
2022/06/27 09:50:29;;;;;;;9.32;6.60;;;;;;;22.28;58.29;101359.66;3571622;40;20081;-64
2022/06/27 09:52:56;;;;;;;8.95;7.45;;;;;;;22.37;58.44;101360.59;3568063;40;20126;-64
2022/06/27 09:55:23;;;;;;;8.02;6.70;;;;;;;22.37;57.97;101358.69;3571114;40;20052;-65
2022/06/27 09:57:52;;;;;;;10.35;7.22;;;;;;;22.20;56.59;101326.69;3571867;40;20139;-67
2022/06/27 10:00:20;;;;;;;10.50;7.25;;;;;;;22.39;58.06;101359.41;3570520;40;20051;-64
2022/06/27 10:02:47;;;;;;;10.23;7.45;;;;;;;22.44;57.62;101350.69;3569590;40;20406;-64
2022/06/27 10:05:19;;;;;;;11.25;6.35;;;;;;;22.46;57.49;101351.41;3569266;40;20048;-64
2022/06/27 10:08:00;;;;;;;13.43;6.95;;;;;;;22.45;57.57;101349.66;3573425;40;20065;-64
2022/06/27 10:10:51;;;;;;;6.95;4.93;;;;;;;22.52;56.30;101347.16;3571372;40;20047;-64
2022/06/27 10:13:17;;;;;;;6.03;4.70;;;;;;;22.57;54.09;101342.06;3573144;40;20065;-64
2022/06/27 10:15:49;;;;;;;7.65;5.05;;;;;;;22.76;52.74;101336.34;3573228;40;20157;-64
2022/06/27 10:18:15;;;;;;;6.90;5.30;;;;;;;22.95;53.54;101335.31;3569209;40;20049;-64
2022/06/27 10:20:47;;;;;;;8.10;5.18;;;;;;;23.00;54.54;101345.78;3569395;40;20558;-64
2022/06/27 10:23:13;;;;;;;8.27;5.85;;;;;;;22.94;54.40;101339.94;3575332;40;20057;-64
2022/06/27 10:25:44;;;;;;;8.85;5.97;;;;;;;22.89;55.26;101336.78;3572287;40;20753;-65
2022/06/27 10:28:13;;;;;;;8.65;5.22;;;;;;;22.87;54.46;101338.84;3572734;40;20049;-65
2022/06/27 10:30:55;;;;;;;6.85;4.82;;;;;;;23.00;54.34;101335.69;3567723;40;20783;-65
2022/06/27 10:33:20;;;;;;;7.18;5.57;;;;;;;23.06;54.52;101347.88;3569807;40;20118;-66
2022/06/27 10:35:55;;;;;;;8.13;5.00;;;;;;;22.96;54.35;101352.59;3571930;40;20365;-65
2022/06/27 10:38:42;;;;;;;9.38;4.90;;;;;;;22.79;55.67;101341.50;3571741;40;20068;-65
2022/06/27 10:41:19;;;;;;;6.03;4.18;;;;;;;22.75;54.82;101351.09;3567909;40;20071;-65
2022/06/27 10:43:56;;;;;;;8.75;4.05;;;;;;;22.61;54.59;101349.81;3569034;40;20063;-65
2022/06/27 10:46:22;;;;;;;7.68;4.93;;;;;;;22.48;55.57;101355.69;3569453;40;20049;-65
2022/06/27 10:48:51;;;;;;;5.88;3.58;;;;;;;22.44;55.80;101356.19;3568958;40;20067;-65
2022/06/27 10:51:30;;;;;;;5.68;3.67;;;;;;;22.44;55.58;101351.56;3566013;40;20060;-65
2022/06/27 10:53:59;;;;;;;5.13;3.33;;;;;;;22.48;55.15;101352.09;3570224;40;20052;-65
2022/06/27 10:56:51;;;;;;;9.15;3.22;;;;;;;22.52;54.77;101356.25;3568709;40;20052;-65
2022/06/27 10:59:16;;;;;;;8.82;3.08;;;;;;;22.48;54.22;101355.69;3556521;40;20074;-65
2022/06/27 11:02:02;;;;;;;5.97;3.13;;;;;;;22.47;53.32;101353.97;3560533;40;20419;-65
2022/06/27 11:04:31;;;;;;;6.93;2.92;;;;;;;22.48;53.89;101361.16;3568527;40;20057;-66
2022/06/27 11:07:08;;;;;;;4.70;2.80;;;;;;;22.52;52.97;101352.63;3567948;40;20074;-65
2022/06/27 11:09:44;;;;;;;6.47;3.13;;;;;;;22.44;53.46;101359.78;3567915;40;20075;-64
2022/06/27 11:12:16;;;;;;;4.63;2.88;;;;;;;22.50;53.80;101357.44;3566695;40;20093;-65
2022/06/27 11:14:56;;;;;;;5.82;3.30;;;;;;;22.61;54.23;101355.28;3570063;40;20092;-65
2022/06/27 11:17:43;;;;;;;6.22;3.20;;;;;;;22.61;53.97;101351.66;3569580;40;20470;-64
2022/06/27 11:20:24;;;;;;;5.47;2.70;;;;;;;22.59;54.28;101360.06;3570618;40;20398;-64
2022/06/27 11:23:02;;;;;;;5.25;3.03;;;;;;;22.52;54.07;101366.31;3569995;40;20051;-64
2022/06/27 11:25:30;;;;;;;6.13;3.50;;;;;;;22.38;54.68;101360.41;3567520;40;20048;-64
2022/06/27 11:33:41;;;;;;;11.85;4.47;;;;;;;22.19;55.37;101366.91;3570951;40;20126;-65